»·PEaware :: JAVAN63 KDLF-KLBB

JAVAN63 :: KDLF-KLBB

FLIGHT INFORMATION

Flight Status: Arrived
Operator: Unknown
More flights by this operator :: More flights under this callsign
Pilot: 47th FTW Laughlin (28783)
Aircraft: BEECH AIRCRAFT T-6A TEXAN
(TEX2)
More flights by this aircraft type
Origin: KDLF Laughlin AFB
United States
Destination: KLBB Lubbock Intl
United States
More flights between these airports :: More routes between these airports
Route: +HINKO JCT SJT BGS LBB
File this flight plan on PilotEdge
Remarks:
Altitude:
(Current/Filed)
21,000ft
Speed:
(Current/Filed)
0kts
Departed: 22-Jul-20 11:46 AM
Arrived: 22-Jul-20 01:30 PM
Distance/Time
Traveled:
264nm/1:44
Distance/Time
To Go:
Arrived

Flight Plot

Page will automatically refresh every two minutes.

Flight plan parsing failed; only flown route is shown


Map Options




Map Legend


Flown Route
Filed Route
Departure Airport
Arrival Airport
Navaid (VOR, NDB)
Fix

Horizontal Profiles

Position Reports

Time Latitude Longitude Heading Altitude Ground
Speed
22-Jul-20 11:40 29.362754 -100.787741 45 1074ft 0kts
22-Jul-20 11:41 29.362754 -100.787741 45 1074ft 0kts
22-Jul-20 11:42 29.363898 -100.788556 314 1075ft 15kts
22-Jul-20 11:43 29.366441 -100.788302 45 1079ft 9kts
22-Jul-20 11:44 29.366676 -100.788036 47 1079ft 0kts
22-Jul-20 11:45 29.364878 -100.784998 134 1075ft 91kts
22-Jul-20 11:46 29.334586 -100.748195 132 2765ft 192kts
22-Jul-20 11:47 29.298123 -100.706921 125 6408ft 173kts
22-Jul-20 11:48 29.333626 -100.684156 355 9743ft 200kts
22-Jul-20 11:49 29.391163 -100.689945 355 13178ft 212kts
22-Jul-20 11:50 29.450816 -100.691902 29 16530ft 217kts
22-Jul-20 11:51 29.499366 -100.649192 40 19597ft 216kts
22-Jul-20 11:52 29.552483 -100.604865 36 21170ft 255kts
22-Jul-20 11:53 29.611242 -100.553752 44 21418ft 243kts
22-Jul-20 11:54 29.664604 -100.498397 39 20986ft 252kts
22-Jul-20 11:55 29.723299 -100.451891 35 20979ft 252kts
22-Jul-20 11:56 29.781212 -100.405334 37 20909ft 254kts
22-Jul-20 11:57 29.838098 -100.357575 37 20996ft 251kts
22-Jul-20 11:58 29.895055 -100.309267 40 20967ft 251kts
22-Jul-20 11:59 29.949035 -100.256916 43 21000ft 251kts
22-Jul-20 12:00 30.001280 -100.203855 39 20998ft 252kts
22-Jul-20 12:01 30.057072 -100.153338 39 21018ft 251kts
22-Jul-20 12:02 30.121916 -100.123020 13 20995ft 255kts
22-Jul-20 12:03 30.189885 -100.098635 25 21011ft 253kts
22-Jul-20 12:04 30.253401 -100.060640 31 20965ft 253kts
22-Jul-20 12:05 30.314836 -100.020207 33 21016ft 253kts
22-Jul-20 12:06 30.375075 -99.976523 34 21015ft 251kts
22-Jul-20 12:07 30.435558 -99.933589 34 21008ft 252kts
22-Jul-20 12:08 30.495130 -99.889050 29 21028ft 252kts
22-Jul-20 12:09 30.556346 -99.847047 37 20993ft 252kts
22-Jul-20 12:10 30.619925 -99.815160 349 21088ft 252kts
22-Jul-20 12:11 30.666691 -99.874163 326 21007ft 255kts
22-Jul-20 12:12 30.725619 -99.923205 324 21016ft 257kts
22-Jul-20 12:13 30.784800 -99.971051 326 20985ft 259kts
22-Jul-20 12:14 30.845714 -100.017681 326 20892ft 261kts
22-Jul-20 12:15 30.904541 -100.065743 321 20883ft 265kts
22-Jul-20 12:17 30.963330 -100.115620 326 20988ft 260kts
22-Jul-20 12:18 31.021271 -100.166922 323 21079ft 256kts
22-Jul-20 12:19 31.078163 -100.220227 322 20987ft 260kts
22-Jul-20 12:20 31.135240 -100.271202 324 21022ft 258kts
22-Jul-20 12:21 31.197278 -100.316585 329 21008ft 255kts
22-Jul-20 12:22 31.258539 -100.361660 328 20956ft 260kts
22-Jul-20 12:23 31.319079 -100.408636 322 20967ft 260kts
22-Jul-20 12:24 31.379488 -100.457534 333 20991ft 258kts
22-Jul-20 12:25 31.431313 -100.515418 320 21018ft 259kts
22-Jul-20 12:26 31.487381 -100.570071 322 21070ft 255kts
22-Jul-20 12:27 31.541737 -100.626268 320 20968ft 260kts
22-Jul-20 12:28 31.596956 -100.681647 319 21007ft 257kts
22-Jul-20 12:29 31.652136 -100.736449 314 20985ft 258kts
22-Jul-20 12:30 31.704804 -100.794489 318 21017ft 256kts
22-Jul-20 12:31 31.759799 -100.849803 320 20931ft 260kts
22-Jul-20 12:31 31.802782 -100.899202 313 20988ft 259kts
22-Jul-20 12:33 31.863783 -100.968525 318 21081ft 254kts
22-Jul-20 12:34 31.916914 -101.025483 319 21022ft 259kts
22-Jul-20 12:34 31.961825 -101.072750 316 20928ft 264kts
22-Jul-20 12:36 32.027915 -101.137883 321 18686ft 272kts
22-Jul-20 12:36 32.076639 -101.185567 319 16583ft 270kts
22-Jul-20 12:37 32.132096 -101.242761 320 15650ft 261kts
22-Jul-20 12:39 32.195641 -101.304726 322 15993ft 267kts
22-Jul-20 12:39 32.244667 -101.354341 320 15978ft 282kts
22-Jul-20 12:40 32.303947 -101.415623 318 16057ft 271kts
22-Jul-20 12:41 32.355611 -101.473866 318 15996ft 254kts
22-Jul-20 12:42 32.418096 -101.510920 348 16104ft 250kts
22-Jul-20 12:43 32.488008 -101.528511 349 16048ft 256kts
22-Jul-20 12:44 32.557418 -101.548048 347 15995ft 258kts
22-Jul-20 12:45 32.595481 -101.560136 342 16033ft 259kts
22-Jul-20 12:46 32.595481 -101.560136 342 16033ft 259kts
22-Jul-20 12:47 32.595481 -101.560136 342 16033ft 259kts
22-Jul-20 12:48 32.595481 -101.560136 342 16033ft 259kts
22-Jul-20 12:49 32.595481 -101.560136 342 16033ft 259kts
22-Jul-20 12:50 32.595481 -101.560136 342 16033ft 259kts
22-Jul-20 12:51 32.595481 -101.560136 342 16033ft 259kts
22-Jul-20 12:52 32.595481 -101.560136 342 16033ft 259kts
22-Jul-20 12:53 32.595481 -101.560136 342 16033ft 259kts
22-Jul-20 12:54 32.595481 -101.560136 342 16033ft 259kts
22-Jul-20 12:55 32.595481 -101.560136 342 16033ft 259kts
22-Jul-20 12:56 32.595481 -101.560136 342 16033ft 259kts
22-Jul-20 12:57 32.595481 -101.560136 342 16033ft 259kts
22-Jul-20 12:58 32.595481 -101.560136 342 16033ft 259kts
22-Jul-20 12:59 32.595481 -101.560136 342 16033ft 259kts
22-Jul-20 13:00 32.595481 -101.560136 342 16033ft 259kts
22-Jul-20 13:01 32.595481 -101.560136 342 16033ft 259kts
22-Jul-20 13:02 32.595481 -101.560136 342 16033ft 259kts
22-Jul-20 13:03 32.595481 -101.560136 342 16033ft 259kts
22-Jul-20 13:04 32.595481 -101.560136 342 16033ft 259kts
22-Jul-20 13:05 32.595481 -101.560136 342 16033ft 259kts
22-Jul-20 13:06 32.595481 -101.560136 342 16033ft 259kts
22-Jul-20 13:07 32.611804 -101.566605 343 16000ft 259kts
22-Jul-20 13:08 32.678993 -101.593697 345 15954ft 264kts
22-Jul-20 13:09 32.749221 -101.612592 348 15975ft 259kts
22-Jul-20 13:10 32.819824 -101.632050 348 15992ft 257kts
22-Jul-20 13:11 32.889469 -101.651669 348 16075ft 253kts
22-Jul-20 13:12 32.959356 -101.669092 349 16039ft 256kts
22-Jul-20 13:13 33.029197 -101.684701 350 16077ft 250kts
22-Jul-20 13:14 33.099729 -101.704770 347 14021ft 267kts
22-Jul-20 13:15 33.173979 -101.718041 354 11613ft 263kts
22-Jul-20 13:16 33.240716 -101.741717 341 9953ft 239kts
22-Jul-20 13:17 33.303278 -101.769953 330 7797ft 242kts
22-Jul-20 13:18 33.366324 -101.788878 352 5842ft 224kts
22-Jul-20 13:19 33.422314 -101.791370 27 5279ft 188kts
22-Jul-20 13:20 33.470125 -101.772825 319 5142ft 197kts
22-Jul-20 13:21 33.508834 -101.813827 326 4895ft 157kts
22-Jul-20 13:22 33.545130 -101.828558 359 4853ft 131kts
22-Jul-20 13:23 33.582841 -101.828944 4 4585ft 127kts
22-Jul-20 13:24 33.620451 -101.829110 3 3885ft 140kts
22-Jul-20 13:25 33.651734 -101.856255 357 3817ft 151kts
22-Jul-20 13:26 33.691364 -101.860017 358 3897ft 139kts
22-Jul-20 13:27 33.703506 -101.837684 145 3653ft 116kts
22-Jul-20 13:28 33.673800 -101.828982 178 3266ft 78kts
22-Jul-20 13:29 33.661310 -101.828913 178 3252ft 22kts
22-Jul-20 13:30 33.660290 -101.830165 265 3249ft 2kts
22-Jul-20 13:31 33.660290 -101.830165 265 3249ft 2kts
22-Jul-20 13:32 33.660290 -101.830165 265 3249ft 2kts
22-Jul-20 13:33 33.660290 -101.830165 265 3249ft 2kts
22-Jul-20 13:34 33.660290 -101.830165 265 3249ft 2kts
22-Jul-20 13:35 33.660290 -101.830165 265 3249ft 2kts
22-Jul-20 13:36 33.660290 -101.830165 265 3249ft 2kts
22-Jul-20 13:37 33.660290 -101.830165 265 3249ft 2kts
22-Jul-20 13:38 33.660290 -101.830165 265 3249ft 2kts
22-Jul-20 13:39 33.660290 -101.830165 265 3249ft 2kts
22-Jul-20 13:40 33.660290 -101.830165 265 3249ft 2kts
22-Jul-20 13:41 33.660290 -101.830165 265 3249ft 2kts
22-Jul-20 13:42 33.660290 -101.830165 265 3249ft 2kts
22-Jul-20 13:43 33.660290 -101.830165 265 3249ft 2kts
22-Jul-20 13:44 33.660290 -101.830165 265 3249ft 2kts

Navigation Log

Ident Type
Flight plan parsing failed, navigation log unavailable